Time;durP1;ratioP1;P1;durP2;ratioP2;P2;SDS_P1;SDS_P2;PMS_P1;PMS_P2;Temp;Humidity;BMP_temperature;BMP_pressure;BME280_temperature;BME280_humidity;BME280_pressure;Samples;Min_cycle;Max_cycle;Signal;HPM_P1;HPM_P2
2021/01/11 05:17:29;;;;;;;11.97;2.73;;;;;;;;;;4227006;27;20366;-71
2021/01/11 05:19:49;;;;;;;13.90;2.50;;;;;;;;;;4226882;28;20059;-65
2021/01/11 05:22:28;;;;;;;11.20;2.85;;;;;;;;;;4213404;28;20097;-66
2021/01/11 05:24:50;;;;;;;14.98;2.28;;;;;;;;;;4215043;28;20060;-71
2021/01/11 05:27:11;;;;;;;15.68;3.00;;;;;;;;;;4218959;28;20062;-71
2021/01/11 05:29:35;;;;;;;17.30;2.80;;;;;;;;;;4216223;28;20171;-71
2021/01/11 05:32:35;;;;;;;10.32;2.40;;;;;;;;;;4223602;28;20058;-71
2021/01/11 05:34:58;;;;;;;;;;;;;;;;;;4193957;28;20474;-71
2021/01/11 05:37:36;;;;;;;6.65;2.47;;;;;;;;;;4192367;28;19979;-69
2021/01/11 05:40:09;;;;;;;9.80;2.92;;;;;;;;;;4209066;28;20055;-68
2021/01/11 05:42:30;;;;;;;8.02;2.50;;;;;;;;;;4209974;28;20182;-70
2021/01/11 05:45:02;;;;;;;10.40;2.55;;;;;;;;;;4210152;28;20059;-70
2021/01/11 05:47:26;;;;;;;11.15;1.98;;;;;;;;;;4209447;28;20453;-71
2021/01/11 05:50:06;;;;;;;10.88;2.60;;;;;;;;;;4209796;28;20534;-71
2021/01/11 05:52:33;;;;;;;7.10;2.10;;;;;;;;;;4208609;28;20457;-71
2021/01/11 05:54:56;;;;;;;7.07;2.55;;;;;;;;;;4209308;28;20067;-63
2021/01/11 05:57:22;;;;;;;11.43;2.10;;;;;;;;;;4205725;28;20972;-70
2021/01/11 05:59:46;;;;;;;7.18;2.53;;;;;;;;;;4198542;28;20804;-69
2021/01/11 06:02:10;;;;;;;6.22;2.33;;;;;;;;;;4192728;28;20059;-70
2021/01/11 06:04:33;;;;;;;5.97;2.35;;;;;;;;;;4193185;28;20099;-70
2021/01/11 06:06:54;;;;;;;12.60;6.40;;;;;;;;;;4193724;28;20140;-77
2021/01/11 06:09:17;;;;;;;16.73;8.02;;;;;;;;;;4207362;28;20162;-64
2021/01/11 06:11:42;;;;;;;11.02;5.60;;;;;;;;;;4206190;28;20109;-74
2021/01/11 06:14:05;;;;;;;9.98;4.55;;;;;;;;;;4203664;28;20074;-74
2021/01/11 06:16:28;;;;;;;6.18;3.92;;;;;;;;;;4206839;28;20101;-74
2021/01/11 06:18:50;;;;;;;7.22;3.97;;;;;;;;;;4207745;28;20063;-74
2021/01/11 06:21:11;;;;;;;5.60;3.25;;;;;;;;;;4205237;28;20084;-74
2021/01/11 06:23:34;;;;;;;5.20;3.05;;;;;;;;;;4207416;28;20055;-73
2021/01/11 06:25:55;;;;;;;4.55;2.92;;;;;;;;;;4207145;28;20060;-76
2021/01/11 06:28:28;;;;;;;7.95;2.78;;;;;;;;;;4197991;28;20129;-73
2021/01/11 06:30:49;;;;;;;3.92;2.63;;;;;;;;;;4192226;28;20545;-73
2021/01/11 06:33:11;;;;;;;5.20;2.80;;;;;;;;;;4181037;28;20115;-73
2021/01/11 06:35:32;;;;;;;6.35;2.55;;;;;;;;;;4196709;28;20106;-73
2021/01/11 06:38:10;;;;;;;8.85;2.65;;;;;;;;;;4196986;28;20110;-73
2021/01/11 06:40:34;;;;;;;5.30;2.72;;;;;;;;;;4197963;28;20454;-73
2021/01/11 06:42:58;;;;;;;3.72;2.42;;;;;;;;;;4198393;28;20098;-73
2021/01/11 06:45:35;;;;;;;4.18;2.20;;;;;;;;;;4198074;28;20540;-73
2021/01/11 06:48:04;;;;;;;4.05;1.70;;;;;;;;;;4181774;28;20064;-73
2021/01/11 06:50:26;;;;;;;4.57;2.38;;;;;;;;;;4180704;28;20091;-73
2021/01/11 06:52:49;;;;;;;4.95;2.53;;;;;;;;;;4181685;28;20476;-73
2021/01/11 06:55:14;;;;;;;3.80;2.03;;;;;;;;;;4180985;28;20583;-73
2021/01/11 06:57:36;;;;;;;2.95;1.88;;;;;;;;;;4180263;28;20068;-73
2021/01/11 07:00:07;;;;;;;3.05;1.63;;;;;;;;;;4180327;28;20063;-73
2021/01/11 07:02:28;;;;;;;3.20;1.83;;;;;;;;;;4181135;28;20423;-73
2021/01/11 07:04:49;;;;;;;;;;;;;;;;;;4181837;28;20060;-73
2021/01/11 07:07:23;;;;;;;4.25;2.05;;;;;;;;;;4180417;28;19932;-73
2021/01/11 07:09:55;;;;;;;2.25;1.80;;;;;;;;;;4181125;28;20091;-73
2021/01/11 07:12:19;;;;;;;3.80;1.90;;;;;;;;;;4181073;28;20533;-73
2021/01/11 07:14:59;;;;;;;3.45;2.10;;;;;;;;;;4179981;28;20156;-73
2021/01/11 07:17:35;;;;;;;3.22;1.58;;;;;;;;;;4180179;28;20063;-73
2021/01/11 07:19:58;;;;;;;3.10;1.70;;;;;;;;;;4179757;28;20110;-73
2021/01/11 07:22:22;;;;;;;1.95;1.65;;;;;;;;;;4183218;28;20064;-73
2021/01/11 07:24:43;;;;;;;3.42;1.88;;;;;;;;;;4196555;28;20075;-73
2021/01/11 07:27:04;;;;;;;3.25;1.58;;;;;;;;;;4197609;28;20051;-73
2021/01/11 07:29:24;;;;;;;3.97;2.38;;;;;;;;;;4197609;28;20144;-73
2021/01/11 07:31:47;;;;;;;2.38;1.80;;;;;;;;;;4197875;28;20058;-70
2021/01/11 07:34:10;;;;;;;2.58;1.70;;;;;;;;;;4197210;28;20059;-73
2021/01/11 07:36:37;;;;;;;2.53;1.60;;;;;;;;;;4195466;28;20646;-70
2021/01/11 07:39:11;;;;;;;2.70;1.90;;;;;;;;;;4196413;28;20143;-70
2021/01/11 07:41:32;;;;;;;2.38;1.52;;;;;;;;;;4196315;28;20075;-70
2021/01/11 07:43:53;;;;;;;2.35;1.33;;;;;;;;;;4196858;28;20125;-70
2021/01/11 07:46:20;;;;;;;7.03;5.85;;;;;;;;;;4196732;28;20862;-68
2021/01/11 07:48:44;;;;;;;7.53;6.53;;;;;;;;;;4195372;28;20513;-72
2021/01/11 07:51:08;;;;;;;8.63;7.47;;;;;;;;;;4196088;28;20709;-73
2021/01/11 07:53:37;;;;;;;11.50;8.63;;;;;;;;;;4197035;28;20064;-73
2021/01/11 07:55:58;;;;;;;11.45;8.70;;;;;;;;;;4196177;28;20063;-74
2021/01/11 07:58:21;;;;;;;;;;;;;;;;;;4196086;28;20530;-64
2021/01/11 08:00:42;;;;;;;11.45;8.30;;;;;;;;;;4195505;28;20405;-72
2021/01/11 08:03:04;;;;;;;12.55;9.32;;;;;;;;;;4194868;28;20102;-63
2021/01/11 08:05:26;;;;;;;11.43;9.52;;;;;;;;;;4196570;28;20098;-63
2021/01/11 08:07:55;;;;;;;12.85;10.32;;;;;;;;;;4196354;28;20135;-64
2021/01/11 08:10:23;;;;;;;12.75;9.57;;;;;;;;;;4196287;28;20185;-63
2021/01/11 08:12:44;;;;;;;10.93;9.10;;;;;;;;;;4196387;28;20546;-62
2021/01/11 08:15:07;;;;;;;13.27;10.10;;;;;;;;;;4195242;28;20144;-62
2021/01/11 08:17:30;;;;;;;12.18;10.02;;;;;;;;;;4195104;28;20131;-62
2021/01/11 08:19:51;;;;;;;14.93;9.57;;;;;;;;;;4196385;28;20055;-62
2021/01/11 08:22:18;;;;;;;12.73;8.95;;;;;;;;;;4193687;28;20181;-62
2021/01/11 08:24:43;;;;;;;14.43;10.05;;;;;;;;;;4196180;28;20121;-62
2021/01/11 08:27:06;;;;;;;11.43;9.10;;;;;;;;;;4194868;28;20576;-62
2021/01/11 08:29:35;;;;;;;12.25;8.90;;;;;;;;;;4196203;28;20067;-62
2021/01/11 08:31:55;;;;;;;11.70;9.07;;;;;;;;;;4196243;28;20105;-62
2021/01/11 08:34:16;;;;;;;10.52;8.68;;;;;;;;;;4196257;28;20075;-62
2021/01/11 08:36:39;;;;;;;13.60;10.27;;;;;;;;;;4196126;28;20128;-64
2021/01/11 08:39:13;;;;;;;11.95;6.32;;;;;;;;;;4196207;28;20470;-64
2021/01/11 08:41:35;;;;;;;8.77;5.45;;;;;;;;;;4196267;28;20419;-64
2021/01/11 08:43:56;;;;;;;10.55;5.53;;;;;;;;;;4180484;28;20058;-65
2021/01/11 08:46:19;;;;;;;10.07;5.00;;;;;;;;;;4179687;28;20103;-64
2021/01/11 08:48:40;;;;;;;9.43;4.47;;;;;;;;;;4177825;28;20140;-65
2021/01/11 08:51:04;;;;;;;9.77;4.25;;;;;;;;;;4178838;28;20087;-64
2021/01/11 08:53:26;;;;;;;8.65;3.65;;;;;;;;;;4180287;28;20056;-65
2021/01/11 08:55:55;;;;;;;10.43;3.60;;;;;;;;;;4180264;28;20404;-65
2021/01/11 08:58:19;;;;;;;8.32;4.05;;;;;;;;;;4180216;28;20063;-65
2021/01/11 09:00:42;;;;;;;8.25;3.40;;;;;;;;;;4180057;28;20064;-64
2021/01/11 09:03:03;;;;;;;7.28;3.58;;;;;;;;;;4178020;28;20107;-64
2021/01/11 09:05:26;;;;;;;9.93;3.47;;;;;;;;;;4178960;28;20099;-65
2021/01/11 09:07:46;;;;;;;9.48;3.33;;;;;;;;;;4178170;28;20157;-65
2021/01/11 09:10:19;;;;;;;8.52;3.53;;;;;;;;;;4177635;28;20120;-65
2021/01/11 09:12:41;;;;;;;7.20;3.22;;;;;;;;;;4178469;28;20090;-64
2021/01/11 09:15:02;;;;;;;6.60;3.08;;;;;;;;;;4179388;28;20076;-65
2021/01/11 09:17:27;;;;;;;;;;;;;;;;;;4179628;28;20113;-65
2021/01/11 09:19:47;;;;;;;7.72;2.78;;;;;;;;;;4179010;28;19974;-65
2021/01/11 09:22:14;;;;;;;7.88;3.00;;;;;;;;;;4178469;28;20083;-65
2021/01/11 09:24:35;;;;;;;10.13;3.17;;;;;;;;;;4195676;28;20063;-65
2021/01/11 09:26:56;;;;;;;6.95;3.15;;;;;;;;;;4194415;28;20067;-64
2021/01/11 09:29:18;;;;;;;8.50;2.92;;;;;;;;;;4194466;28;20253;-64
2021/01/11 09:31:42;;;;;;;5.30;2.80;;;;;;;;;;4195171;28;20106;-65
2021/01/11 09:34:05;;;;;;;6.30;2.92;;;;;;;;;;4193610;28;20545;-65
2021/01/11 09:36:32;;;;;;;5.65;2.90;;;;;;;;;;4193943;28;20063;-65
2021/01/11 09:38:54;;;;;;;5.00;2.83;;;;;;;;;;4195288;28;20079;-65
2021/01/11 09:41:16;;;;;;;3.72;2.75;;;;;;;;;;4194254;28;20542;-65
2021/01/11 09:43:39;;;;;;;7.72;2.92;;;;;;;;;;4195046;28;20060;-65
2021/01/11 09:46:01;;;;;;;6.07;2.55;;;;;;;;;;4195289;28;20418;-65
2021/01/11 09:48:24;;;;;;;6.70;2.83;;;;;;;;;;4194045;28;20079;-65
2021/01/11 09:50:44;;;;;;;6.22;2.80;;;;;;;;;;4195183;28;20065;-65
2021/01/11 09:53:08;;;;;;;6.30;2.60;;;;;;;;;;4195165;28;20642;-65
2021/01/11 09:55:29;;;;;;;7.07;2.55;;;;;;;;;;4194877;28;20059;-65
2021/01/11 09:57:52;;;;;;;4.50;2.20;;;;;;;;;;4195454;28;20079;-65
2021/01/11 10:00:15;;;;;;;7.03;2.97;;;;;;;;;;4194028;28;20059;-65
2021/01/11 10:02:46;;;;;;;5.70;2.55;;;;;;;;;;4195497;28;20113;-68
2021/01/11 10:05:07;;;;;;;5.65;2.42;;;;;;;;;;4198334;28;20141;-67
2021/01/11 10:07:30;;;;;;;4.68;2.53;;;;;;;;;;4197258;28;20650;-67
2021/01/11 10:09:54;;;;;;;6.10;2.78;;;;;;;;;;4198131;28;20063;-67
2021/01/11 10:12:15;;;;;;;5.43;2.15;;;;;;;;;;4197191;28;20101;-67
2021/01/11 10:14:35;;;;;;;5.72;2.40;;;;;;;;;;4198126;28;20408;-67
2021/01/11 10:16:57;;;;;;;5.10;2.22;;;;;;;;;;4196847;28;20150;-67
2021/01/11 10:19:23;;;;;;;4.88;2.42;;;;;;;;;;4197304;28;20155;-66
2021/01/11 10:21:44;;;;;;;5.30;1.92;;;;;;;;;;4198511;28;20067;-66
2021/01/11 10:24:05;;;;;;;7.10;2.28;;;;;;;;;;4180832;28;20060;-66
2021/01/11 10:26:28;;;;;;;3.95;1.80;;;;;;;;;;4181710;28;20060;-66
2021/01/11 10:28:50;;;;;;;6.70;2.30;;;;;;;;;;4180710;28;20546;-66
2021/01/11 10:31:13;;;;;;;4.25;2.00;;;;;;;;;;4181454;28;20064;-66
2021/01/11 10:33:34;;;;;;;3.63;2.17;;;;;;;;;;4181444;28;20067;-67
2021/01/11 10:35:59;;;;;;;3.70;1.80;;;;;;;;;;4180206;28;20126;-66
2021/01/11 10:38:19;;;;;;;3.45;1.77;;;;;;;;;;4181580;28;20060;-67
2021/01/11 10:40:43;;;;;;;3.67;1.65;;;;;;;;;;4179748;28;20071;-66
2021/01/11 10:43:06;;;;;;;4.25;1.42;;;;;;;;;;4180313;28;20127;-66
2021/01/11 10:45:27;;;;;;;4.50;1.88;;;;;;;;;;4181264;28;20103;-66
2021/01/11 10:47:50;;;;;;;4.22;1.98;;;;;;;;;;4181300;28;20103;-67
2021/01/11 10:50:11;;;;;;;3.38;1.90;;;;;;;;;;4181277;28;20060;-67
2021/01/11 10:52:36;;;;;;;3.80;2.05;;;;;;;;;;4181273;28;20122;-66
2021/01/11 10:54:59;;;;;;;2.95;1.58;;;;;;;;;;4181322;28;20150;-66
2021/01/11 10:57:19;;;;;;;4.43;1.70;;;;;;;;;;4180244;28;20750;-66
2021/01/11 10:59:43;;;;;;;4.40;1.52;;;;;;;;;;4181069;28;20474;-66
2021/01/11 11:02:04;;;;;;;4.53;1.60;;;;;;;;;;4179956;28;20064;-67
2021/01/11 11:04:24;;;;;;;3.17;1.80;;;;;;;;;;4180006;28;20783;-66
2021/01/11 11:06:45;;;;;;;4.95;1.83;;;;;;;;;;4181056;28;20518;-67
2021/01/11 11:09:10;;;;;;;2.05;1.60;;;;;;;;;;4180019;28;20462;-67
2021/01/11 11:11:33;;;;;;;2.95;2.30;;;;;;;;;;4179666;28;20063;-67
2021/01/11 11:13:54;;;;;;;3.30;1.58;;;;;;;;;;4179549;28;20060;-66
2021/01/11 11:16:17;;;;;;;3.13;1.35;;;;;;;;;;4180387;28;20199;-67
2021/01/11 11:18:39;;;;;;;3.47;1.98;;;;;;;;;;4180383;28;20106;-66
2021/01/11 11:20:59;;;;;;;2.88;2.05;;;;;;;;;;4180420;28;20130;-67
2021/01/11 11:23:20;;;;;;;2.63;1.40;;;;;;;;;;4191112;28;20098;-67
2021/01/11 11:25:45;;;;;;;3.05;1.42;;;;;;;;;;4196540;28;20067;-66
2021/01/11 11:28:08;;;;;;;4.18;1.75;;;;;;;;;;4195866;28;20090;-67
2021/01/11 11:30:29;;;;;;;4.18;1.70;;;;;;;;;;4196915;28;20126;-66
2021/01/11 11:32:50;;;;;;;2.05;1.30;;;;;;;;;;4197010;28;20068;-67
2021/01/11 11:35:12;;;;;;;2.60;1.70;;;;;;;;;;4196495;28;20641;-66
2021/01/11 11:37:34;;;;;;;1.92;1.40;;;;;;;;;;4196784;28;20056;-66
2021/01/11 11:39:54;;;;;;;;;;;;;;;;;;4197454;28;20059;-66
2021/01/11 11:42:15;;;;;;;2.28;1.45;;;;;;;;;;4196748;28;19943;-66
2021/01/11 11:44:39;;;;;;;2.53;1.58;;;;;;;;;;4195592;28;20593;-66
2021/01/11 11:46:59;;;;;;;1.98;1.63;;;;;;;;;;4196829;28;20056;-66
2021/01/11 11:49:23;;;;;;;2.88;1.00;;;;;;;;;;4196456;28;20081;-66
2021/01/11 11:51:45;;;;;;;1.92;1.52;;;;;;;;;;4196402;28;20075;-66
2021/01/11 11:54:05;;;;;;;;;;;;;;;;;;4197025;28;20576;-66
2021/01/11 11:56:28;;;;;;;2.95;1.48;;;;;;;;;;4196560;28;19978;-66
2021/01/11 11:58:50;;;;;;;2.08;1.27;;;;;;;;;;4196454;28;20554;-66
2021/01/11 12:01:11;;;;;;;2.13;1.33;;;;;;;;;;4196301;28;20087;-66
2021/01/11 12:03:32;;;;;;;2.58;1.20;;;;;;;;;;4195351;28;20657;-66
2021/01/11 12:05:55;;;;;;;3.10;1.42;;;;;;;;;;4195205;28;20108;-66
2021/01/11 12:08:16;;;;;;;2.17;1.10;;;;;;;;;;4195324;28;20055;-66
2021/01/11 12:10:37;;;;;;;2.08;1.23;;;;;;;;;;4195527;28;20125;-66
2021/01/11 12:12:57;;;;;;;2.00;0.90;;;;;;;;;;4196311;28;20108;-67
2021/01/11 12:15:21;;;;;;;2.15;1.10;;;;;;;;;;4196431;28;20106;-66
2021/01/11 12:17:43;;;;;;;;;;;;;;;;;;4195529;28;20060;-66
2021/01/11 12:20:05;;;;;;;1.80;1.20;;;;;;;;;;4195970;28;19991;-67
2021/01/11 12:22:29;;;;;;;4.05;1.50;;;;;;;;;;4193496;28;20064;-66
2021/01/11 12:24:49;;;;;;;2.33;1.30;;;;;;;;;;4196244;28;20135;-67
2021/01/11 12:27:10;;;;;;;2.28;1.42;;;;;;;;;;4194469;28;20159;-66
2021/01/11 12:29:34;;;;;;;3.15;1.27;;;;;;;;;;4195603;28;20458;-66
2021/01/11 12:31:56;;;;;;;1.40;1.10;;;;;;;;;;4179410;28;20107;-67
2021/01/11 12:34:16;;;;;;;2.65;1.45;;;;;;;;;;4181321;28;20533;-66
2021/01/11 12:36:39;;;;;;;2.83;1.40;;;;;;;;;;4186848;28;20101;-66
2021/01/11 12:39:00;;;;;;;2.17;1.40;;;;;;;;;;4195812;28;20060;-66
2021/01/11 12:41:22;;;;;;;2.33;1.40;;;;;;;;;;4195458;28;20063;-65
2021/01/11 12:43:42;;;;;;;;;;;;;;;;;;4195159;28;20099;-67
2021/01/11 12:46:08;;;;;;;2.05;1.55;;;;;;;;;;4194956;28;19963;-66
2021/01/11 12:48:33;;;;;;;1.98;1.15;;;;;;;;;;4196016;28;20112;-67
2021/01/11 12:50:56;;;;;;;2.60;1.17;;;;;;;;;;4195785;28;20510;-66
2021/01/11 12:53:17;;;;;;;1.50;1.05;;;;;;;;;;4195666;28;20091;-66
2021/01/11 12:55:38;;;;;;;2.50;1.55;;;;;;;;;;4194281;28;20063;-66
2021/01/11 12:58:02;;;;;;;2.15;1.20;;;;;;;;;;4194613;28;20063;-67
2021/01/11 13:00:25;;;;;;;2.30;1.02;;;;;;;;;;4195085;28;20060;-76
2021/01/11 13:02:46;;;;;;;2.88;1.30;;;;;;;;;;4194634;28;20058;-69
2021/01/11 13:05:09;;;;;;;4.38;1.77;;;;;;;;;;4191142;28;20079;-70
2021/01/11 13:07:31;;;;;;;11.65;2.10;;;;;;;;;;4190199;28;20442;-70
2021/01/11 13:09:54;;;;;;;9.13;1.75;;;;;;;;;;4194404;28;20079;-69
2021/01/11 13:12:18;;;;;;;9.95;2.08;;;;;;;;;;4192429;28;20087;-67
2021/01/11 13:14:43;;;;;;;6.40;2.20;;;;;;;;;;4193751;28;20136;-67
2021/01/11 13:17:06;;;;;;;7.78;1.90;;;;;;;;;;4191247;28;20059;-67
2021/01/11 13:19:27;;;;;;;7.68;2.00;;;;;;;;;;4192801;28;20063;-73
2021/01/11 13:21:48;;;;;;;5.47;1.83;;;;;;;;;;4191706;28;20079;-72
2021/01/11 13:24:09;;;;;;;4.43;1.85;;;;;;;;;;4189202;28;20091;-71
2021/01/11 13:26:35;;;;;;;8.13;1.80;;;;;;;;;;4189359;28;20090;-77
2021/01/11 13:28:58;;;;;;;9.00;2.42;;;;;;;;;;4178228;28;20107;-71
2021/01/11 13:31:20;;;;;;;4.75;1.83;;;;;;;;;;4177940;28;20091;-69
2021/01/11 13:33:41;;;;;;;4.07;1.58;;;;;;;;;;4177123;28;20082;-67
2021/01/11 13:36:01;;;;;;;5.88;1.67;;;;;;;;;;4193123;28;20399;-67
2021/01/11 13:38:26;;;;;;;6.50;2.05;;;;;;;;;;4195903;28;20763;-65
2021/01/11 13:40:50;;;;;;;6.60;1.80;;;;;;;;;;4192978;28;20397;-66
2021/01/11 13:43:10;;;;;;;5.65;1.75;;;;;;;;;;4195096;28;20056;-71
2021/01/11 13:45:32;;;;;;;3.80;1.55;;;;;;;;;;4194001;28;20051;-69
2021/01/11 13:47:52;;;;;;;3.80;1.27;;;;;;;;;;4195311;28;20054;-65
2021/01/11 13:50:15;;;;;;;6.13;1.80;;;;;;;;;;4194883;28;20564;-74
2021/01/11 13:52:35;;;;;;;5.38;1.95;;;;;;;;;;4197707;28;20050;-67
2021/01/11 13:55:00;;;;;;;6.93;2.03;;;;;;;;;;4195774;28;20148;-77
2021/01/11 13:57:20;;;;;;;;;;;;;;;;;;4187484;28;20419;-78
2021/01/11 13:59:40;;;;;;;10.93;1.70;;;;;;;;;;4140808;28;20081;-68
2021/01/11 14:02:04;;;;;;;5.25;1.70;;;;;;;;;;4185417;28;20063;-72
2021/01/11 14:04:29;;;;;;;3.85;1.55;;;;;;;;;;4194704;28;20130;-73
2021/01/11 14:06:53;;;;;;;5.82;1.67;;;;;;;;;;4197710;28;20121;-71
2021/01/11 14:09:14;;;;;;;5.82;2.08;;;;;;;;;;4195996;28;20058;-71
2021/01/11 14:11:39;;;;;;;4.82;1.58;;;;;;;;;;4192008;28;20094;-70
2021/01/11 14:14:02;;;;;;;7.68;1.88;;;;;;;;;;4196887;28;20766;-74
2021/01/11 14:16:27;;;;;;;5.28;1.92;;;;;;;;;;4197020;28;20534;-76
2021/01/11 14:18:47;;;;;;;5.88;1.90;;;;;;;;;;4197676;28;20083;-70
2021/01/11 14:21:11;;;;;;;6.22;1.65;;;;;;;;;;4196699;28;20063;-74
2021/01/11 14:23:35;;;;;;;5.43;2.15;;;;;;;;;;4195562;28;20102;-69
2021/01/11 14:25:56;;;;;;;5.15;1.55;;;;;;;;;;4195061;28;20541;-69
2021/01/11 14:28:20;;;;;;;4.65;1.55;;;;;;;;;;4196404;28;20131;-69
2021/01/11 14:30:43;;;;;;;5.15;1.58;;;;;;;;;;4197642;28;20136;-69
2021/01/11 14:33:04;;;;;;;3.78;1.67;;;;;;;;;;4184269;28;20089;-75
2021/01/11 14:35:24;;;;;;;5.00;1.48;;;;;;;;;;4193128;28;20403;-74
2021/01/11 14:37:49;;;;;;;4.65;1.50;;;;;;;;;;4190658;28;20423;-67
2021/01/11 14:40:10;;;;;;;3.55;1.65;;;;;;;;;;4195098;28;20515;-78
2021/01/11 14:42:32;;;;;;;2.90;1.63;;;;;;;;;;4194178;28;20054;-77
2021/01/11 14:44:57;;;;;;;3.08;1.10;;;;;;;;;;4195640;28;20136;-66
2021/01/11 14:47:20;;;;;;;8.18;1.55;;;;;;;;;;4195940;28;20079;-75
2021/01/11 14:49:41;;;;;;;5.13;1.48;;;;;;;;;;4194025;28;20063;-71
2021/01/11 14:52:03;;;;;;;4.10;1.30;;;;;;;;;;4195866;28;20061;-65
2021/01/11 14:54:25;;;;;;;5.30;2.00;;;;;;;;;;4195914;28;20643;-76
2021/01/11 14:56:53;;;;;;;6.22;1.60;;;;;;;;;;4192952;28;20071;-72
2021/01/11 14:59:14;;;;;;;2.80;1.38;;;;;;;;;;4188570;28;20168;-69
2021/01/11 15:01:35;;;;;;;4.65;1.80;;;;;;;;;;4193200;28;20055;-64
2021/01/11 15:03:56;;;;;;;5.00;1.60;;;;;;;;;;4194400;28;20133;-65
2021/01/11 15:06:19;;;;;;;4.03;1.20;;;;;;;;;;4195282;28;20079;-70
2021/01/11 15:08:43;;;;;;;4.07;1.30;;;;;;;;;;4195353;28;20110;-69
2021/01/11 15:11:03;;;;;;;5.60;1.38;;;;;;;;;;4194520;28;20052;-63
2021/01/11 15:13:24;;;;;;;;;;;;;;;;;;4186789;28;20179;-66
2021/01/11 15:15:48;;;;;;;5.13;1.77;;;;;;;;;;4194265;28;20402;-71
2021/01/11 15:18:10;;;;;;;3.42;1.70;;;;;;;;;;4193033;28;20097;-75
2021/01/11 15:20:30;;;;;;;3.22;1.38;;;;;;;;;;4194649;28;20132;-69
2021/01/11 15:22:51;;;;;;;4.57;1.67;;;;;;;;;;4192496;28;20098;-73
2021/01/11 15:25:15;;;;;;;3.88;1.42;;;;;;;;;;4192379;28;20090;-73
2021/01/11 15:27:36;;;;;;;;;;;;;;;;;;4180954;28;20519;-74
2021/01/11 15:29:59;;;;;;;5.90;1.45;;;;;;;;;;4180286;28;19932;-73
2021/01/11 15:32:20;;;;;;;6.10;1.65;;;;;;;;;;4179116;28;20192;-73
2021/01/11 15:34:41;;;;;;;1.83;1.15;;;;;;;;;;4195486;28;20059;-75
2021/01/11 15:37:04;;;;;;;6.80;1.60;;;;;;;;;;4196798;28;20170;-75
2021/01/11 15:39:28;;;;;;;2.40;1.40;;;;;;;;;;4196913;28;20060;-72
2021/01/11 15:41:49;;;;;;;3.88;1.23;;;;;;;;;;4195716;28;20063;-72
2021/01/11 15:44:56;;;;;;;3.08;1.10;;;;;;;;;;4197048;28;20062;-72
2021/01/11 15:47:17;;;;;;;3.13;1.30;;;;;;;;;;4196845;28;20067;-72
2021/01/11 15:49:38;;;;;;;4.32;1.02;;;;;;;;;;4195640;28;20106;-72
2021/01/11 15:51:59;;;;;;;1.88;1.33;;;;;;;;;;4195645;28;20060;-72
2021/01/11 15:54:20;;;;;;;3.25;1.13;;;;;;;;;;4196550;28;20064;-72
2021/01/11 15:56:43;;;;;;;2.00;1.10;;;;;;;;;;4194809;28;20062;-73
2021/01/11 15:59:06;;;;;;;2.35;1.13;;;;;;;;;;4195492;28;20097;-73
2021/01/11 16:01:34;;;;;;;3.42;1.30;;;;;;;;;;4180569;28;20095;-74
2021/01/11 16:03:55;;;;;;;4.93;1.88;;;;;;;;;;4182351;28;20133;-74
2021/01/11 16:06:16;;;;;;;3.22;1.20;;;;;;;;;;4178817;28;20091;-74
2021/01/11 16:08:40;;;;;;;2.00;1.30;;;;;;;;;;4178953;28;20149;-73
2021/01/11 16:11:01;;;;;;;4.13;1.30;;;;;;;;;;4178379;28;20467;-73
2021/01/11 16:13:22;;;;;;;3.58;1.42;;;;;;;;;;4178784;28;20059;-73
2021/01/11 16:15:46;;;;;;;3.08;1.35;;;;;;;;;;4183927;28;20071;-73
2021/01/11 16:18:06;;;;;;;1.35;0.90;;;;;;;;;;4194597;28;20055;-73
2021/01/11 16:20:27;;;;;;;2.38;1.02;;;;;;;;;;4194295;28;20672;-72
2021/01/11 16:22:47;;;;;;;1.60;0.80;;;;;;;;;;4196037;28;20090;-72
2021/01/11 16:25:13;;;;;;;2.88;1.23;;;;;;;;;;4195091;28;20101;-72
2021/01/11 16:27:35;;;;;;;2.95;1.25;;;;;;;;;;4196242;28;20059;-73
2021/01/11 16:29:58;;;;;;;2.00;0.98;;;;;;;;;;4196175;28;20141;-74
2021/01/11 16:32:19;;;;;;;3.28;0.93;;;;;;;;;;4195218;28;20063;-75
2021/01/11 16:34:41;;;;;;;2.05;1.08;;;;;;;;;;4196105;28;20047;-71
2021/01/11 16:37:02;;;;;;;3.63;1.00;;;;;;;;;;4195185;28;20208;-72
2021/01/11 16:39:26;;;;;;;1.63;1.00;;;;;;;;;;4196468;28;20055;-72
2021/01/11 16:41:47;;;;;;;1.25;0.88;;;;;;;;;;4195480;28;20064;-72
2021/01/11 16:44:08;;;;;;;1.77;0.95;;;;;;;;;;4195838;28;20529;-72
2021/01/11 16:46:29;;;;;;;2.25;1.27;;;;;;;;;;4194813;28;20059;-74
2021/01/11 16:48:50;;;;;;;1.67;0.75;;;;;;;;;;4193781;28;20091;-75
2021/01/11 16:51:12;;;;;;;2.22;0.90;;;;;;;;;;4194332;28;20059;-74
2021/01/11 16:53:36;;;;;;;3.45;0.85;;;;;;;;;;4194903;28;20114;-72
2021/01/11 16:55:56;;;;;;;;;;;;;;;;;;4196416;28;20147;-72
2021/01/11 16:58:20;;;;;;;1.90;1.05;;;;;;;;;;4195873;28;20488;-72
2021/01/11 17:00:41;;;;;;;3.17;1.20;;;;;;;;;;4178835;28;20064;-71
2021/01/11 17:03:01;;;;;;;1.98;1.08;;;;;;;;;;4177550;28;20056;-71
2021/01/11 17:05:25;;;;;;;3.40;1.33;;;;;;;;;;4179174;28;20072;-71
2021/01/11 17:07:49;;;;;;;1.83;1.17;;;;;;;;;;4177722;28;20055;-71
2021/01/11 17:10:12;;;;;;;1.50;0.93;;;;;;;;;;4178877;28;20119;-71
2021/01/11 17:12:36;;;;;;;1.80;0.90;;;;;;;;;;4179191;28;20122;-71
2021/01/11 17:14:58;;;;;;;1.48;0.90;;;;;;;;;;4179111;28;20144;-71
2021/01/11 17:17:18;;;;;;;1.48;1.00;;;;;;;;;;4179113;28;20479;-70
2021/01/11 17:19:43;;;;;;;2.17;1.45;;;;;;;;;;4179248;28;20471;-71
2021/01/11 17:22:07;;;;;;;1.95;1.00;;;;;;;;;;4178915;28;20114;-70
2021/01/11 17:24:30;;;;;;;1.83;0.90;;;;;;;;;;4179085;28;20862;-71
2021/01/11 17:26:51;;;;;;;1.50;1.08;;;;;;;;;;4177523;28;20483;-70
2021/01/11 17:29:12;;;;;;;1.58;1.25;;;;;;;;;;4178080;28;20063;-71
2021/01/11 17:31:34;;;;;;;1.30;0.80;;;;;;;;;;4191401;28;20102;-71
2021/01/11 17:33:56;;;;;;;1.50;0.98;;;;;;;;;;4177783;28;20091;-70
2021/01/11 17:36:18;;;;;;;2.05;0.93;;;;;;;;;;4177885;28;20114;-71
2021/01/11 17:38:48;;;;;;;1.83;1.23;;;;;;;;;;4178922;28;20051;-71
2021/01/11 17:41:09;;;;;;;1.20;0.70;;;;;;;;;;4178840;28;20133;-71
2021/01/11 17:43:32;;;;;;;1.42;1.00;;;;;;;;;;4179216;28;20064;-70
2021/01/11 17:45:53;;;;;;;3.00;1.17;;;;;;;;;;4189062;28;20114;-68
2021/01/11 17:48:14;;;;;;;1.88;1.00;;;;;;;;;;4192540;28;20083;-65
2021/01/11 17:50:35;;;;;;;3.15;0.93;;;;;;;;;;4190808;28;20059;-68
2021/01/11 17:52:58;;;;;;;3.30;1.30;;;;;;;;;;4188777;28;20451;-66
2021/01/11 17:55:19;;;;;;;2.10;0.90;;;;;;;;;;4194551;28;20059;-62
2021/01/11 17:57:42;;;;;;;2.47;1.10;;;;;;;;;;4191794;28;20091;-72
2021/01/11 18:00:06;;;;;;;5.72;1.00;;;;;;;;;;4190179;28;20141;-66
2021/01/11 18:02:27;;;;;;;4.72;1.38;;;;;;;;;;4191771;28;20067;-65
2021/01/11 18:04:51;;;;;;;9.32;1.55;;;;;;;;;;4193273;28;20074;-62
2021/01/11 18:07:12;;;;;;;9.25;1.30;;;;;;;;;;4193014;28;20047;-68
2021/01/11 18:09:34;;;;;;;11.00;2.17;;;;;;;;;;4193888;28;20548;-68
2021/01/11 18:11:54;;;;;;;7.75;1.30;;;;;;;;;;4192900;28;20518;-68
2021/01/11 18:14:18;;;;;;;9.10;1.88;;;;;;;;;;4195329;28;20462;-68
2021/01/11 18:16:42;;;;;;;7.55;1.85;;;;;;;;;;4195344;28;20063;-68
2021/01/11 18:19:03;;;;;;;9.77;1.42;;;;;;;;;;4195476;28;20127;-68
2021/01/11 18:21:24;;;;;;;6.80;1.55;;;;;;;;;;4194447;28;20056;-68
2021/01/11 18:23:47;;;;;;;7.53;1.90;;;;;;;;;;4196113;28;20059;-68
2021/01/11 18:26:08;;;;;;;5.13;1.55;;;;;;;;;;4198365;28;20418;-68
2021/01/11 18:28:32;;;;;;;6.38;2.08;;;;;;;;;;4197672;28;20060;-68
2021/01/11 18:30:52;;;;;;;5.43;1.70;;;;;;;;;;4196202;28;20051;-63
2021/01/11 18:33:16;;;;;;;8.23;1.40;;;;;;;;;;4196137;28;20063;-63
2021/01/11 18:35:40;;;;;;;7.57;1.70;;;;;;;;;;4197213;28;20071;-64
2021/01/11 18:38:03;;;;;;;4.68;1.67;;;;;;;;;;4193464;28;20138;-67
2021/01/11 18:40:27;;;;;;;6.03;2.20;;;;;;;;;;4194988;28;20087;-68
2021/01/11 18:42:52;;;;;;;6.47;2.22;;;;;;;;;;4195754;28;20067;-68
2021/01/11 18:45:16;;;;;;;8.60;2.65;;;;;;;;;;4196192;28;20091;-68
2021/01/11 18:47:36;;;;;;;;;;;;;;;;;;4198717;28;20046;-69
2021/01/11 18:49:59;;;;;;;4.57;2.78;;;;;;;;;;4198226;28;19931;-68
2021/01/11 18:52:23;;;;;;;3.53;2.78;;;;;;;;;;4198218;28;20063;-69
2021/01/11 18:54:47;;;;;;;3.72;2.95;;;;;;;;;;4198216;28;20061;-69
2021/01/11 18:57:09;;;;;;;3.78;3.00;;;;;;;;;;4196505;28;20605;-69
2021/01/11 18:59:29;;;;;;;3.60;2.25;;;;;;;;;;4196856;28;20063;-67
